sensor_id;sensor_type;location;lat;lon;timestamp;P1;durP1;ratioP1;P2;durP2;ratioP2
19848;SDS011;10085;51.120;6.956;2023-04-24T00:04:47;2.80;;;2.00;;
19848;SDS011;10085;51.120;6.956;2023-04-24T00:09:51;2.42;;;1.85;;
19848;SDS011;10085;51.120;6.956;2023-04-24T00:14:54;2.83;;;1.80;;
19848;SDS011;10085;51.120;6.956;2023-04-24T00:19:57;2.63;;;2.08;;
19848;SDS011;10085;51.120;6.956;2023-04-24T00:25:01;2.30;;;1.80;;
19848;SDS011;10085;51.120;6.956;2023-04-24T00:30:05;2.72;;;2.00;;
19848;SDS011;10085;51.120;6.956;2023-04-24T00:35:10;3.20;;;1.73;;
19848;SDS011;10085;51.120;6.956;2023-04-24T00:40:14;3.55;;;1.90;;
19848;SDS011;10085;51.120;6.956;2023-04-24T00:45:17;2.47;;;1.70;;
19848;SDS011;10085;51.120;6.956;2023-04-24T00:50:20;2.05;;;1.73;;
19848;SDS011;10085;51.120;6.956;2023-04-24T00:55:25;2.20;;;1.77;;
19848;SDS011;10085;51.120;6.956;2023-04-24T01:00:28;1.83;;;1.52;;
19848;SDS011;10085;51.120;6.956;2023-04-24T01:05:31;2.10;;;1.75;;
19848;SDS011;10085;51.120;6.956;2023-04-24T01:10:35;2.17;;;1.75;;
19848;SDS011;10085;51.120;6.956;2023-04-24T01:15:38;3.33;;;1.50;;
19848;SDS011;10085;51.120;6.956;2023-04-24T01:20:42;2.05;;;1.73;;
19848;SDS011;10085;51.120;6.956;2023-04-24T01:25:47;1.75;;;1.48;;
19848;SDS011;10085;51.120;6.956;2023-04-24T01:30:50;1.48;;;1.38;;
19848;SDS011;10085;51.120;6.956;2023-04-24T01:35:57;2.10;;;1.60;;
19848;SDS011;10085;51.120;6.956;2023-04-24T01:41:01;1.50;;;1.40;;
19848;SDS011;10085;51.120;6.956;2023-04-24T01:46:04;1.90;;;1.70;;
19848;SDS011;10085;51.120;6.956;2023-04-24T01:51:10;1.67;;;1.40;;
19848;SDS011;10085;51.120;6.956;2023-04-24T01:56:14;1.50;;;1.30;;
19848;SDS011;10085;51.120;6.956;2023-04-24T02:01:17;1.83;;;1.38;;
19848;SDS011;10085;51.120;6.956;2023-04-24T02:06:21;1.55;;;1.45;;
19848;SDS011;10085;51.120;6.956;2023-04-24T02:11:28;2.38;;;1.35;;
19848;SDS011;10085;51.120;6.956;2023-04-24T02:16:31;1.48;;;1.38;;
19848;SDS011;10085;51.120;6.956;2023-04-24T02:21:35;3.00;;;1.67;;
19848;SDS011;10085;51.120;6.956;2023-04-24T02:26:39;1.63;;;1.40;;
19848;SDS011;10085;51.120;6.956;2023-04-24T02:31:42;1.77;;;1.60;;
19848;SDS011;10085;51.120;6.956;2023-04-24T02:36:48;1.30;;;1.20;;
19848;SDS011;10085;51.120;6.956;2023-04-24T02:41:52;1.90;;;1.40;;
19848;SDS011;10085;51.120;6.956;2023-04-24T02:46:55;2.03;;;1.50;;
19848;SDS011;10085;51.120;6.956;2023-04-24T02:51:58;1.42;;;1.33;;
19848;SDS011;10085;51.120;6.956;2023-04-24T02:57:02;1.65;;;1.40;;
19848;SDS011;10085;51.120;6.956;2023-04-24T03:02:05;1.95;;;1.30;;
19848;SDS011;10085;51.120;6.956;2023-04-24T03:07:08;1.67;;;1.33;;
19848;SDS011;10085;51.120;6.956;2023-04-24T03:12:12;1.90;;;1.50;;
19848;SDS011;10085;51.120;6.956;2023-04-24T03:17:15;1.70;;;1.30;;
19848;SDS011;10085;51.120;6.956;2023-04-24T03:22:18;1.88;;;1.40;;
19848;SDS011;10085;51.120;6.956;2023-04-24T03:27:22;1.65;;;1.50;;
19848;SDS011;10085;51.120;6.956;2023-04-24T03:32:30;2.03;;;1.30;;
19848;SDS011;10085;51.120;6.956;2023-04-24T03:37:34;1.70;;;1.50;;
19848;SDS011;10085;51.120;6.956;2023-04-24T03:42:57;1.50;;;1.23;;
19848;SDS011;10085;51.120;6.956;2023-04-24T03:48:00;2.03;;;1.60;;
19848;SDS011;10085;51.120;6.956;2023-04-24T03:53:04;1.88;;;1.40;;
19848;SDS011;10085;51.120;6.956;2023-04-24T03:58:14;1.60;;;1.48;;
19848;SDS011;10085;51.120;6.956;2023-04-24T04:03:17;3.33;;;1.55;;
19848;SDS011;10085;51.120;6.956;2023-04-24T04:08:21;1.73;;;1.58;;
19848;SDS011;10085;51.120;6.956;2023-04-24T04:13:28;2.10;;;1.40;;
19848;SDS011;10085;51.120;6.956;2023-04-24T04:18:33;3.78;;;1.95;;
19848;SDS011;10085;51.120;6.956;2023-04-24T04:23:39;2.28;;;1.80;;
19848;SDS011;10085;51.120;6.956;2023-04-24T04:28:57;2.22;;;1.70;;
19848;SDS011;10085;51.120;6.956;2023-04-24T04:33:59;2.00;;;1.55;;
19848;SDS011;10085;51.120;6.956;2023-04-24T04:39:04;1.63;;;1.40;;
19848;SDS011;10085;51.120;6.956;2023-04-24T04:44:21;1.85;;;1.60;;
19848;SDS011;10085;51.120;6.956;2023-04-24T04:49:25;1.85;;;1.58;;
19848;SDS011;10085;51.120;6.956;2023-04-24T04:54:29;1.90;;;1.70;;
19848;SDS011;10085;51.120;6.956;2023-04-24T04:59:34;2.17;;;1.90;;
19848;SDS011;10085;51.120;6.956;2023-04-24T05:04:41;2.70;;;1.67;;
19848;SDS011;10085;51.120;6.956;2023-04-24T05:09:44;2.38;;;2.03;;
19848;SDS011;10085;51.120;6.956;2023-04-24T05:14:49;3.05;;;2.00;;
19848;SDS011;10085;51.120;6.956;2023-04-24T05:19:52;2.00;;;1.80;;
19848;SDS011;10085;51.120;6.956;2023-04-24T05:24:55;2.65;;;2.08;;
19848;SDS011;10085;51.120;6.956;2023-04-24T05:30:11;2.20;;;1.70;;
19848;SDS011;10085;51.120;6.956;2023-04-24T05:35:14;3.28;;;1.70;;
19848;SDS011;10085;51.120;6.956;2023-04-24T05:40:17;2.00;;;1.77;;
19848;SDS011;10085;51.120;6.956;2023-04-24T05:45:21;3.53;;;1.85;;
19848;SDS011;10085;51.120;6.956;2023-04-24T05:50:24;3.17;;;1.88;;
19848;SDS011;10085;51.120;6.956;2023-04-24T05:55:27;4.05;;;1.92;;
19848;SDS011;10085;51.120;6.956;2023-04-24T06:00:32;3.90;;;1.90;;
19848;SDS011;10085;51.120;6.956;2023-04-24T06:05:39;2.33;;;1.92;;
19848;SDS011;10085;51.120;6.956;2023-04-24T06:10:42;3.20;;;2.00;;
19848;SDS011;10085;51.120;6.956;2023-04-24T06:15:47;2.35;;;1.88;;
19848;SDS011;10085;51.120;6.956;2023-04-24T06:20:55;2.20;;;1.90;;
19848;SDS011;10085;51.120;6.956;2023-04-24T06:25:58;2.30;;;2.10;;
19848;SDS011;10085;51.120;6.956;2023-04-24T06:31:02;2.60;;;1.88;;
19848;SDS011;10085;51.120;6.956;2023-04-24T06:36:06;2.58;;;2.10;;
19848;SDS011;10085;51.120;6.956;2023-04-24T06:41:09;2.38;;;2.05;;
19848;SDS011;10085;51.120;6.956;2023-04-24T06:46:13;4.63;;;2.15;;
19848;SDS011;10085;51.120;6.956;2023-04-24T06:51:16;3.05;;;2.17;;
19848;SDS011;10085;51.120;6.956;2023-04-24T06:56:19;2.75;;;2.08;;
19848;SDS011;10085;51.120;6.956;2023-04-24T07:01:24;2.42;;;2.10;;
19848;SDS011;10085;51.120;6.956;2023-04-24T07:06:27;2.90;;;2.10;;
19848;SDS011;10085;51.120;6.956;2023-04-24T07:11:31;2.55;;;2.20;;
19848;SDS011;10085;51.120;6.956;2023-04-24T07:16:36;2.88;;;2.10;;
19848;SDS011;10085;51.120;6.956;2023-04-24T07:21:39;2.10;;;1.88;;
19848;SDS011;10085;51.120;6.956;2023-04-24T07:26:42;2.53;;;2.03;;
19848;SDS011;10085;51.120;6.956;2023-04-24T07:31:46;2.38;;;2.15;;
19848;SDS011;10085;51.120;6.956;2023-04-24T07:36:49;3.17;;;2.38;;
19848;SDS011;10085;51.120;6.956;2023-04-24T07:41:52;2.85;;;2.40;;
19848;SDS011;10085;51.120;6.956;2023-04-24T07:46:56;2.67;;;2.05;;
19848;SDS011;10085;51.120;6.956;2023-04-24T07:51:59;2.53;;;2.10;;
19848;SDS011;10085;51.120;6.956;2023-04-24T07:57:03;2.10;;;1.90;;
19848;SDS011;10085;51.120;6.956;2023-04-24T08:02:09;2.50;;;2.10;;
19848;SDS011;10085;51.120;6.956;2023-04-24T08:07:12;2.85;;;2.25;;
19848;SDS011;10085;51.120;6.956;2023-04-24T08:12:15;3.05;;;2.28;;
19848;SDS011;10085;51.120;6.956;2023-04-24T08:17:19;2.47;;;2.20;;
19848;SDS011;10085;51.120;6.956;2023-04-24T08:22:22;3.15;;;2.13;;
19848;SDS011;10085;51.120;6.956;2023-04-24T08:27:25;2.40;;;2.10;;
19848;SDS011;10085;51.120;6.956;2023-04-24T08:32:30;2.50;;;2.20;;
19848;SDS011;10085;51.120;6.956;2023-04-24T08:37:32;4.22;;;2.38;;
19848;SDS011;10085;51.120;6.956;2023-04-24T08:42:35;2.40;;;2.20;;
19848;SDS011;10085;51.120;6.956;2023-04-24T08:47:41;2.92;;;2.33;;
19848;SDS011;10085;51.120;6.956;2023-04-24T08:52:51;6.68;;;2.20;;
19848;SDS011;10085;51.120;6.956;2023-04-24T08:58:17;2.53;;;2.20;;
19848;SDS011;10085;51.120;6.956;2023-04-24T09:03:22;4.13;;;2.20;;
19848;SDS011;10085;51.120;6.956;2023-04-24T09:08:40;3.05;;;2.20;;
19848;SDS011;10085;51.120;6.956;2023-04-24T09:20:59;4.07;;;2.40;;
19848;SDS011;10085;51.120;6.956;2023-04-24T09:26:11;2.90;;;2.50;;
19848;SDS011;10085;51.120;6.956;2023-04-24T09:32:47;2.80;;;2.15;;
19848;SDS011;10085;51.120;6.956;2023-04-24T09:39:23;2.97;;;2.33;;
19848;SDS011;10085;51.120;6.956;2023-04-24T09:44:26;2.78;;;2.20;;
19848;SDS011;10085;51.120;6.956;2023-04-24T09:49:30;2.65;;;2.00;;
19848;SDS011;10085;51.120;6.956;2023-04-24T09:54:36;3.47;;;2.00;;
19848;SDS011;10085;51.120;6.956;2023-04-24T09:59:41;3.25;;;2.38;;
19848;SDS011;10085;51.120;6.956;2023-04-24T10:05:26;4.28;;;2.15;;
19848;SDS011;10085;51.120;6.956;2023-04-24T10:16:41;2.45;;;2.13;;
19848;SDS011;10085;51.120;6.956;2023-04-24T10:21:44;2.50;;;2.15;;
19848;SDS011;10085;51.120;6.956;2023-04-24T10:26:48;2.08;;;1.70;;
19848;SDS011;10085;51.120;6.956;2023-04-24T10:31:52;2.22;;;1.75;;
19848;SDS011;10085;51.120;6.956;2023-04-24T10:36:55;3.50;;;1.80;;
19848;SDS011;10085;51.120;6.956;2023-04-24T10:42:13;2.25;;;1.98;;
19848;SDS011;10085;51.120;6.956;2023-04-24T10:47:18;2.40;;;2.08;;
19848;SDS011;10085;51.120;6.956;2023-04-24T10:52:21;2.63;;;1.80;;
19848;SDS011;10085;51.120;6.956;2023-04-24T10:57:27;2.40;;;2.00;;
19848;SDS011;10085;51.120;6.956;2023-04-24T11:02:37;2.65;;;1.80;;
19848;SDS011;10085;51.120;6.956;2023-04-24T11:13:14;3.60;;;1.80;;
19848;SDS011;10085;51.120;6.956;2023-04-24T11:18:19;1.75;;;1.60;;
19848;SDS011;10085;51.120;6.956;2023-04-24T11:23:21;2.00;;;1.80;;
19848;SDS011;10085;51.120;6.956;2023-04-24T11:28:24;1.60;;;1.40;;
19848;SDS011;10085;51.120;6.956;2023-04-24T11:33:29;2.17;;;1.80;;
19848;SDS011;10085;51.120;6.956;2023-04-24T11:38:32;1.88;;;1.63;;
19848;SDS011;10085;51.120;6.956;2023-04-24T11:43:35;1.85;;;1.67;;
19848;SDS011;10085;51.120;6.956;2023-04-24T11:48:40;1.58;;;1.35;;
19848;SDS011;10085;51.120;6.956;2023-04-24T11:53:47;2.03;;;1.50;;
19848;SDS011;10085;51.120;6.956;2023-04-24T11:59:03;1.85;;;1.73;;
19848;SDS011;10085;51.120;6.956;2023-04-24T12:04:08;2.10;;;1.40;;
19848;SDS011;10085;51.120;6.956;2023-04-24T12:09:11;2.38;;;1.60;;
19848;SDS011;10085;51.120;6.956;2023-04-24T12:14:19;1.95;;;1.45;;
19848;SDS011;10085;51.120;6.956;2023-04-24T12:19:23;3.80;;;1.50;;
19848;SDS011;10085;51.120;6.956;2023-04-24T12:24:26;1.85;;;1.50;;
19848;SDS011;10085;51.120;6.956;2023-04-24T12:29:29;2.42;;;1.38;;
19848;SDS011;10085;51.120;6.956;2023-04-24T12:34:33;1.65;;;1.30;;
19848;SDS011;10085;51.120;6.956;2023-04-24T12:39:36;1.83;;;1.50;;
19848;SDS011;10085;51.120;6.956;2023-04-24T12:44:39;1.98;;;1.50;;
19848;SDS011;10085;51.120;6.956;2023-04-24T12:49:54;1.60;;;1.48;;
19848;SDS011;10085;51.120;6.956;2023-04-24T12:54:57;2.50;;;1.63;;
19848;SDS011;10085;51.120;6.956;2023-04-24T13:00:02;2.03;;;1.73;;
19848;SDS011;10085;51.120;6.956;2023-04-24T13:05:09;1.58;;;1.42;;
19848;SDS011;10085;51.120;6.956;2023-04-24T13:10:18;1.80;;;1.70;;
19848;SDS011;10085;51.120;6.956;2023-04-24T13:15:36;1.90;;;1.60;;
19848;SDS011;10085;51.120;6.956;2023-04-24T13:20:40;2.83;;;1.70;;
19848;SDS011;10085;51.120;6.956;2023-04-24T13:25:43;4.63;;;1.95;;
19848;SDS011;10085;51.120;6.956;2023-04-24T13:30:46;4.15;;;2.15;;
19848;SDS011;10085;51.120;6.956;2023-04-24T13:35:53;4.05;;;2.10;;
19848;SDS011;10085;51.120;6.956;2023-04-24T13:40:56;5.80;;;2.63;;
19848;SDS011;10085;51.120;6.956;2023-04-24T13:45:59;4.18;;;2.20;;
19848;SDS011;10085;51.120;6.956;2023-04-24T13:51:13;6.43;;;2.38;;
19848;SDS011;10085;51.120;6.956;2023-04-24T13:56:16;5.80;;;2.30;;
19848;SDS011;10085;51.120;6.956;2023-04-24T14:01:19;4.93;;;2.25;;
19848;SDS011;10085;51.120;6.956;2023-04-24T14:06:26;4.38;;;2.25;;
19848;SDS011;10085;51.120;6.956;2023-04-24T14:11:29;4.70;;;2.60;;
19848;SDS011;10085;51.120;6.956;2023-04-24T14:16:32;5.00;;;2.50;;
19848;SDS011;10085;51.120;6.956;2023-04-24T14:21:36;3.33;;;1.98;;
19848;SDS011;10085;51.120;6.956;2023-04-24T14:26:48;3.65;;;2.25;;
19848;SDS011;10085;51.120;6.956;2023-04-24T14:32:30;4.38;;;2.28;;
19848;SDS011;10085;51.120;6.956;2023-04-24T14:37:34;6.20;;;2.10;;
19848;SDS011;10085;51.120;6.956;2023-04-24T14:42:37;4.18;;;2.00;;
19848;SDS011;10085;51.120;6.956;2023-04-24T14:47:40;4.32;;;2.20;;
19848;SDS011;10085;51.120;6.956;2023-04-24T14:52:45;4.05;;;1.83;;
19848;SDS011;10085;51.120;6.956;2023-04-24T14:57:55;3.28;;;2.10;;
19848;SDS011;10085;51.120;6.956;2023-04-24T15:03:07;2.95;;;2.22;;
19848;SDS011;10085;51.120;6.956;2023-04-24T15:08:12;3.28;;;1.98;;
19848;SDS011;10085;51.120;6.956;2023-04-24T15:13:14;4.68;;;2.20;;
19848;SDS011;10085;51.120;6.956;2023-04-24T15:18:17;3.35;;;2.20;;
19848;SDS011;10085;51.120;6.956;2023-04-24T15:23:21;3.35;;;2.10;;
19848;SDS011;10085;51.120;6.956;2023-04-24T15:28:29;2.20;;;1.88;;
19848;SDS011;10085;51.120;6.956;2023-04-24T15:33:58;3.30;;;1.95;;
19848;SDS011;10085;51.120;6.956;2023-04-24T15:39:09;2.33;;;1.90;;
19848;SDS011;10085;51.120;6.956;2023-04-24T15:44:36;2.78;;;1.77;;
19848;SDS011;10085;51.120;6.956;2023-04-24T15:50:18;2.30;;;1.83;;
19848;SDS011;10085;51.120;6.956;2023-04-24T15:55:24;2.45;;;1.65;;
19848;SDS011;10085;51.120;6.956;2023-04-24T16:00:27;1.77;;;1.63;;
19848;SDS011;10085;51.120;6.956;2023-04-24T16:05:34;3.92;;;1.90;;
19848;SDS011;10085;51.120;6.956;2023-04-24T16:10:38;2.33;;;1.80;;
19848;SDS011;10085;51.120;6.956;2023-04-24T16:15:41;3.13;;;1.88;;
19848;SDS011;10085;51.120;6.956;2023-04-24T16:20:44;4.25;;;1.90;;
19848;SDS011;10085;51.120;6.956;2023-04-24T16:25:48;2.08;;;1.60;;
19848;SDS011;10085;51.120;6.956;2023-04-24T16:30:55;2.53;;;1.70;;
19848;SDS011;10085;51.120;6.956;2023-04-24T17:52:44;2.58;;;1.80;;
19848;SDS011;10085;51.120;6.956;2023-04-24T17:57:47;2.10;;;1.70;;
19848;SDS011;10085;51.120;6.956;2023-04-24T18:02:50;2.08;;;1.88;;
19848;SDS011;10085;51.120;6.956;2023-04-24T18:07:56;4.70;;;1.83;;
19848;SDS011;10085;51.120;6.956;2023-04-24T18:13:00;5.45;;;1.80;;
19848;SDS011;10085;51.120;6.956;2023-04-24T18:18:29;4.68;;;1.75;;
19848;SDS011;10085;51.120;6.956;2023-04-24T18:47:58;4.88;;;2.28;;
19848;SDS011;10085;51.120;6.956;2023-04-24T18:53:33;3.40;;;2.10;;
19848;SDS011;10085;51.120;6.956;2023-04-24T19:19:47;7.60;;;3.30;;
19848;SDS011;10085;51.120;6.956;2023-04-24T19:24:58;3.70;;;3.17;;
19848;SDS011;10085;51.120;6.956;2023-04-24T19:30:21;6.43;;;3.42;;
19848;SDS011;10085;51.120;6.956;2023-04-24T19:40:51;4.07;;;3.10;;
19848;SDS011;10085;51.120;6.956;2023-04-24T19:46:39;4.72;;;3.45;;
19848;SDS011;10085;51.120;6.956;2023-04-24T19:51:42;5.20;;;3.33;;
19848;SDS011;10085;51.120;6.956;2023-04-24T19:56:46;6.65;;;3.55;;
19848;SDS011;10085;51.120;6.956;2023-04-24T20:01:50;5.85;;;3.67;;
19848;SDS011;10085;51.120;6.956;2023-04-24T20:06:54;3.70;;;3.10;;
19848;SDS011;10085;51.120;6.956;2023-04-24T20:11:57;6.68;;;3.15;;
19848;SDS011;10085;51.120;6.956;2023-04-24T20:17:01;4.88;;;3.25;;
19848;SDS011;10085;51.120;6.956;2023-04-24T20:22:04;6.28;;;2.90;;
19848;SDS011;10085;51.120;6.956;2023-04-24T20:27:07;5.03;;;2.95;;
19848;SDS011;10085;51.120;6.956;2023-04-24T20:32:11;4.78;;;3.00;;
19848;SDS011;10085;51.120;6.956;2023-04-24T20:37:14;3.88;;;2.80;;
19848;SDS011;10085;51.120;6.956;2023-04-24T20:42:17;6.53;;;3.13;;
19848;SDS011;10085;51.120;6.956;2023-04-24T20:47:21;4.70;;;2.92;;
19848;SDS011;10085;51.120;6.956;2023-04-24T20:52:24;3.35;;;2.72;;
19848;SDS011;10085;51.120;6.956;2023-04-24T20:57:26;3.75;;;2.75;;
19848;SDS011;10085;51.120;6.956;2023-04-24T21:02:31;7.07;;;3.00;;
19848;SDS011;10085;51.120;6.956;2023-04-24T21:07:33;2.97;;;2.40;;
19848;SDS011;10085;51.120;6.956;2023-04-24T21:12:36;4.40;;;2.70;;
19848;SDS011;10085;51.120;6.956;2023-04-24T21:17:40;2.88;;;2.40;;
19848;SDS011;10085;51.120;6.956;2023-04-24T21:22:43;3.88;;;2.80;;
19848;SDS011;10085;51.120;6.956;2023-04-24T21:27:46;3.22;;;2.60;;
19848;SDS011;10085;51.120;6.956;2023-04-24T21:32:50;3.33;;;2.63;;
19848;SDS011;10085;51.120;6.956;2023-04-24T21:37:53;3.17;;;2.60;;
19848;SDS011;10085;51.120;6.956;2023-04-24T21:42:56;4.13;;;2.72;;
19848;SDS011;10085;51.120;6.956;2023-04-24T21:48:00;7.53;;;3.00;;
19848;SDS011;10085;51.120;6.956;2023-04-24T21:53:03;3.60;;;2.60;;
19848;SDS011;10085;51.120;6.956;2023-04-24T21:58:06;6.15;;;2.72;;
19848;SDS011;10085;51.120;6.956;2023-04-24T22:03:11;3.25;;;2.40;;
19848;SDS011;10085;51.120;6.956;2023-04-24T22:08:13;5.07;;;2.40;;
19848;SDS011;10085;51.120;6.956;2023-04-24T22:13:16;2.55;;;2.28;;
19848;SDS011;10085;51.120;6.956;2023-04-24T22:18:21;2.92;;;2.40;;
19848;SDS011;10085;51.120;6.956;2023-04-24T22:23:36;4.53;;;2.70;;
19848;SDS011;10085;51.120;6.956;2023-04-24T22:28:39;3.17;;;2.38;;
19848;SDS011;10085;51.120;6.956;2023-04-24T22:33:44;4.07;;;2.28;;
19848;SDS011;10085;51.120;6.956;2023-04-24T22:38:48;3.17;;;2.60;;
19848;SDS011;10085;51.120;6.956;2023-04-24T22:43:51;2.78;;;2.25;;
19848;SDS011;10085;51.120;6.956;2023-04-24T22:48:55;4.47;;;2.45;;
19848;SDS011;10085;51.120;6.956;2023-04-24T22:53:59;3.85;;;2.30;;
19848;SDS011;10085;51.120;6.956;2023-04-24T22:59:02;3.42;;;2.20;;
19848;SDS011;10085;51.120;6.956;2023-04-24T23:04:08;3.67;;;2.80;;
19848;SDS011;10085;51.120;6.956;2023-04-24T23:09:11;3.22;;;2.60;;
19848;SDS011;10085;51.120;6.956;2023-04-24T23:14:13;2.97;;;2.38;;
19848;SDS011;10085;51.120;6.956;2023-04-24T23:19:18;3.05;;;2.15;;
19848;SDS011;10085;51.120;6.956;2023-04-24T23:24:21;3.30;;;2.42;;
19848;SDS011;10085;51.120;6.956;2023-04-24T23:29:23;3.72;;;2.50;;
19848;SDS011;10085;51.120;6.956;2023-04-24T23:34:28;3.63;;;2.38;;
19848;SDS011;10085;51.120;6.956;2023-04-24T23:39:31;3.13;;;2.28;;
19848;SDS011;10085;51.120;6.956;2023-04-24T23:44:33;5.35;;;2.50;;
19848;SDS011;10085;51.120;6.956;2023-04-24T23:49:38;3.75;;;2.65;;
19848;SDS011;10085;51.120;6.956;2023-04-24T23:54:41;2.72;;;2.38;;
19848;SDS011;10085;51.120;6.956;2023-04-24T23:59:43;2.80;;;2.20;;
